sensor_id;sensor_type;location;lat;lon;timestamp;P1;durP1;ratioP1;P2;durP2;ratioP2
12484;SDS011;6307;46.804;11.580;2022-10-23T00:01:35;5.83;;;2.77;;
12484;SDS011;6307;46.804;11.580;2022-10-23T00:04:16;3.37;;;2.60;;
12484;SDS011;6307;46.804;11.580;2022-10-23T00:06:51;3.73;;;2.50;;
12484;SDS011;6307;46.804;11.580;2022-10-23T00:09:18;4.63;;;2.70;;
12484;SDS011;6307;46.804;11.580;2022-10-23T00:11:47;8.63;;;3.00;;
12484;SDS011;6307;46.804;11.580;2022-10-23T00:14:16;2.90;;;2.40;;
12484;SDS011;6307;46.804;11.580;2022-10-23T00:16:45;9.67;;;2.90;;
12484;SDS011;6307;46.804;11.580;2022-10-23T00:19:12;3.10;;;2.30;;
12484;SDS011;6307;46.804;11.580;2022-10-23T00:21:38;4.67;;;2.53;;
12484;SDS011;6307;46.804;11.580;2022-10-23T00:24:04;5.20;;;2.60;;
12484;SDS011;6307;46.804;11.580;2022-10-23T00:26:33;4.93;;;2.17;;
12484;SDS011;6307;46.804;11.580;2022-10-23T00:28:59;3.23;;;2.17;;
12484;SDS011;6307;46.804;11.580;2022-10-23T00:31:25;4.43;;;2.20;;
12484;SDS011;6307;46.804;11.580;2022-10-23T00:33:51;3.57;;;2.00;;
12484;SDS011;6307;46.804;11.580;2022-10-23T00:36:18;3.60;;;2.20;;
12484;SDS011;6307;46.804;11.580;2022-10-23T00:38:46;6.47;;;1.97;;
12484;SDS011;6307;46.804;11.580;2022-10-23T00:41:14;3.17;;;2.00;;
12484;SDS011;6307;46.804;11.580;2022-10-23T00:46:29;4.80;;;1.83;;
12484;SDS011;6307;46.804;11.580;2022-10-23T00:48:56;4.50;;;2.10;;
12484;SDS011;6307;46.804;11.580;2022-10-23T00:51:24;9.33;;;2.30;;
12484;SDS011;6307;46.804;11.580;2022-10-23T00:53:57;2.33;;;1.80;;
12484;SDS011;6307;46.804;11.580;2022-10-23T00:56:26;8.53;;;2.23;;
12484;SDS011;6307;46.804;11.580;2022-10-23T00:58:52;1.87;;;1.47;;
12484;SDS011;6307;46.804;11.580;2022-10-23T01:01:20;3.73;;;1.83;;
12484;SDS011;6307;46.804;11.580;2022-10-23T01:03:48;3.67;;;1.50;;
12484;SDS011;6307;46.804;11.580;2022-10-23T01:15:58;2.47;;;1.40;;
12484;SDS011;6307;46.804;11.580;2022-10-23T01:18:20;1.43;;;1.30;;
12484;SDS011;6307;46.804;11.580;2022-10-23T01:21:22;1.40;;;1.30;;
12484;SDS011;6307;46.804;11.580;2022-10-23T01:29:55;1.30;;;1.20;;
12484;SDS011;6307;46.804;11.580;2022-10-23T01:38:05;1.73;;;1.20;;
12484;SDS011;6307;46.804;11.580;2022-10-23T01:41:15;1.87;;;1.27;;
12484;SDS011;6307;46.804;11.580;2022-10-23T01:46:30;3.83;;;1.30;;
12484;SDS011;6307;46.804;11.580;2022-10-23T01:48:59;3.53;;;1.20;;
12484;SDS011;6307;46.804;11.580;2022-10-23T01:51:29;3.30;;;1.40;;
12484;SDS011;6307;46.804;11.580;2022-10-23T01:53:59;2.13;;;1.30;;
12484;SDS011;6307;46.804;11.580;2022-10-23T01:56:28;4.30;;;1.53;;
12484;SDS011;6307;46.804;11.580;2022-10-23T01:59:04;2.50;;;1.10;;
12484;SDS011;6307;46.804;11.580;2022-10-23T02:01:36;2.90;;;1.20;;
12484;SDS011;6307;46.804;11.580;2022-10-23T02:04:09;2.57;;;1.20;;
12484;SDS011;6307;46.804;11.580;2022-10-23T02:06:42;1.57;;;1.37;;
12484;SDS011;6307;46.804;11.580;2022-10-23T02:09:08;2.00;;;1.20;;
12484;SDS011;6307;46.804;11.580;2022-10-23T02:11:36;3.27;;;1.10;;
12484;SDS011;6307;46.804;11.580;2022-10-23T02:14:17;1.30;;;1.20;;
12484;SDS011;6307;46.804;11.580;2022-10-23T02:17:07;3.57;;;1.20;;
12484;SDS011;6307;46.804;11.580;2022-10-23T02:19:57;1.03;;;1.03;;
12484;SDS011;6307;46.804;11.580;2022-10-23T02:22:59;3.37;;;1.40;;
12484;SDS011;6307;46.804;11.580;2022-10-23T02:25:47;2.60;;;1.20;;
12484;SDS011;6307;46.804;11.580;2022-10-23T02:28:24;1.40;;;1.30;;
12484;SDS011;6307;46.804;11.580;2022-10-23T02:31:04;1.53;;;1.30;;
12484;SDS011;6307;46.804;11.580;2022-10-23T02:33:36;3.03;;;1.30;;
12484;SDS011;6307;46.804;11.580;2022-10-23T02:36:02;3.80;;;1.30;;
12484;SDS011;6307;46.804;11.580;2022-10-23T02:43:56;1.50;;;1.40;;
12484;SDS011;6307;46.804;11.580;2022-10-23T02:49:49;3.13;;;1.40;;
12484;SDS011;6307;46.804;11.580;2022-10-23T02:58:02;1.20;;;1.10;;
12484;SDS011;6307;46.804;11.580;2022-10-23T03:00:37;2.70;;;1.23;;
12484;SDS011;6307;46.804;11.580;2022-10-23T03:03:09;3.13;;;1.43;;
12484;SDS011;6307;46.804;11.580;2022-10-23T03:05:42;2.00;;;1.03;;
12484;SDS011;6307;46.804;11.580;2022-10-23T03:08:10;1.40;;;1.30;;
12484;SDS011;6307;46.804;11.580;2022-10-23T03:10:39;1.23;;;1.13;;
12484;SDS011;6307;46.804;11.580;2022-10-23T03:13:06;1.97;;;1.10;;
12484;SDS011;6307;46.804;11.580;2022-10-23T03:15:34;1.77;;;1.20;;
12484;SDS011;6307;46.804;11.580;2022-10-23T03:18:01;2.57;;;1.40;;
12484;SDS011;6307;46.804;11.580;2022-10-23T03:20:27;1.30;;;1.20;;
12484;SDS011;6307;46.804;11.580;2022-10-23T03:22:53;4.10;;;1.30;;
12484;SDS011;6307;46.804;11.580;2022-10-23T03:25:19;1.93;;;1.23;;
12484;SDS011;6307;46.804;11.580;2022-10-23T03:27:45;2.83;;;1.40;;
12484;SDS011;6307;46.804;11.580;2022-10-23T03:30:11;2.30;;;1.40;;
12484;SDS011;6307;46.804;11.580;2022-10-23T03:32:38;4.77;;;1.33;;
12484;SDS011;6307;46.804;11.580;2022-10-23T03:35:04;1.47;;;1.37;;
12484;SDS011;6307;46.804;11.580;2022-10-23T03:37:30;1.77;;;1.40;;
12484;SDS011;6307;46.804;11.580;2022-10-23T03:39:56;3.27;;;1.40;;
12484;SDS011;6307;46.804;11.580;2022-10-23T03:42:23;4.07;;;1.50;;
12484;SDS011;6307;46.804;11.580;2022-10-23T03:44:49;3.13;;;1.37;;
12484;SDS011;6307;46.804;11.580;2022-10-23T03:47:15;3.00;;;1.30;;
12484;SDS011;6307;46.804;11.580;2022-10-23T03:49:41;1.43;;;1.33;;
12484;SDS011;6307;46.804;11.580;2022-10-23T03:52:07;1.63;;;1.40;;
12484;SDS011;6307;46.804;11.580;2022-10-23T03:54:33;2.40;;;1.30;;
12484;SDS011;6307;46.804;11.580;2022-10-23T03:57:00;1.60;;;1.27;;
12484;SDS011;6307;46.804;11.580;2022-10-23T03:59:27;2.87;;;1.47;;
12484;SDS011;6307;46.804;11.580;2022-10-23T04:01:53;1.97;;;1.40;;
12484;SDS011;6307;46.804;11.580;2022-10-23T04:04:20;4.23;;;1.37;;
12484;SDS011;6307;46.804;11.580;2022-10-23T04:06:46;1.70;;;1.20;;
12484;SDS011;6307;46.804;11.580;2022-10-23T04:09:12;1.67;;;1.00;;
12484;SDS011;6307;46.804;11.580;2022-10-23T04:11:38;1.70;;;1.50;;
12484;SDS011;6307;46.804;11.580;2022-10-23T04:14:04;4.87;;;1.60;;
12484;SDS011;6307;46.804;11.580;2022-10-23T04:16:31;3.17;;;1.30;;
12484;SDS011;6307;46.804;11.580;2022-10-23T04:18:57;1.33;;;1.23;;
12484;SDS011;6307;46.804;11.580;2022-10-23T04:21:23;2.27;;;1.30;;
12484;SDS011;6307;46.804;11.580;2022-10-23T04:23:49;1.20;;;1.10;;
12484;SDS011;6307;46.804;11.580;2022-10-23T04:26:15;4.13;;;1.30;;
12484;SDS011;6307;46.804;11.580;2022-10-23T04:28:41;1.27;;;1.00;;
12484;SDS011;6307;46.804;11.580;2022-10-23T04:31:07;1.37;;;1.27;;
12484;SDS011;6307;46.804;11.580;2022-10-23T04:33:34;2.97;;;1.50;;
12484;SDS011;6307;46.804;11.580;2022-10-23T04:36:00;2.03;;;1.43;;
12484;SDS011;6307;46.804;11.580;2022-10-23T04:38:26;4.13;;;1.60;;
12484;SDS011;6307;46.804;11.580;2022-10-23T04:40:52;3.23;;;1.50;;
12484;SDS011;6307;46.804;11.580;2022-10-23T04:43:18;1.67;;;1.40;;
12484;SDS011;6307;46.804;11.580;2022-10-23T04:45:47;2.47;;;1.70;;
12484;SDS011;6307;46.804;11.580;2022-10-23T04:48:14;2.53;;;1.33;;
12484;SDS011;6307;46.804;11.580;2022-10-23T04:50:40;2.70;;;1.30;;
12484;SDS011;6307;46.804;11.580;2022-10-23T04:53:07;1.40;;;1.30;;
12484;SDS011;6307;46.804;11.580;2022-10-23T04:55:33;2.33;;;1.43;;
12484;SDS011;6307;46.804;11.580;2022-10-23T04:58:00;3.73;;;1.80;;
12484;SDS011;6307;46.804;11.580;2022-10-23T05:00:26;5.17;;;1.80;;
12484;SDS011;6307;46.804;11.580;2022-10-23T05:02:52;1.60;;;1.50;;
12484;SDS011;6307;46.804;11.580;2022-10-23T05:05:18;2.20;;;2.00;;
12484;SDS011;6307;46.804;11.580;2022-10-23T05:07:44;1.80;;;1.70;;
12484;SDS011;6307;46.804;11.580;2022-10-23T05:10:10;1.80;;;1.50;;
12484;SDS011;6307;46.804;11.580;2022-10-23T05:12:36;2.03;;;1.80;;
12484;SDS011;6307;46.804;11.580;2022-10-23T05:15:02;1.80;;;1.50;;
12484;SDS011;6307;46.804;11.580;2022-10-23T05:17:33;3.23;;;1.53;;
12484;SDS011;6307;46.804;11.580;2022-10-23T05:20:04;2.00;;;1.33;;
12484;SDS011;6307;46.804;11.580;2022-10-23T05:22:37;1.63;;;1.33;;
12484;SDS011;6307;46.804;11.580;2022-10-23T05:25:08;2.27;;;1.57;;
12484;SDS011;6307;46.804;11.580;2022-10-23T05:27:36;3.73;;;1.60;;
12484;SDS011;6307;46.804;11.580;2022-10-23T05:30:03;1.67;;;1.27;;
12484;SDS011;6307;46.804;11.580;2022-10-23T05:32:30;2.30;;;1.57;;
12484;SDS011;6307;46.804;11.580;2022-10-23T05:34:58;4.37;;;1.67;;
12484;SDS011;6307;46.804;11.580;2022-10-23T05:37:30;3.53;;;1.50;;
12484;SDS011;6307;46.804;11.580;2022-10-23T05:39:57;2.00;;;1.50;;
12484;SDS011;6307;46.804;11.580;2022-10-23T05:42:23;2.10;;;1.30;;
12484;SDS011;6307;46.804;11.580;2022-10-23T05:44:49;2.13;;;1.40;;
12484;SDS011;6307;46.804;11.580;2022-10-23T05:47:16;1.40;;;1.30;;
12484;SDS011;6307;46.804;11.580;2022-10-23T05:49:42;2.30;;;1.50;;
12484;SDS011;6307;46.804;11.580;2022-10-23T05:52:11;1.20;;;1.10;;
12484;SDS011;6307;46.804;11.580;2022-10-23T05:54:37;1.60;;;1.50;;
12484;SDS011;6307;46.804;11.580;2022-10-23T05:57:03;2.27;;;1.60;;
12484;SDS011;6307;46.804;11.580;2022-10-23T05:59:29;1.27;;;1.20;;
12484;SDS011;6307;46.804;11.580;2022-10-23T06:01:56;1.90;;;1.30;;
12484;SDS011;6307;46.804;11.580;2022-10-23T06:04:22;2.40;;;1.70;;
12484;SDS011;6307;46.804;11.580;2022-10-23T06:06:48;2.60;;;2.20;;
12484;SDS011;6307;46.804;11.580;2022-10-23T06:09:14;2.70;;;1.73;;
12484;SDS011;6307;46.804;11.580;2022-10-23T06:11:41;2.00;;;1.40;;
12484;SDS011;6307;46.804;11.580;2022-10-23T06:14:07;1.60;;;1.47;;
12484;SDS011;6307;46.804;11.580;2022-10-23T06:16:33;2.30;;;1.40;;
12484;SDS011;6307;46.804;11.580;2022-10-23T06:19:00;3.70;;;1.73;;
12484;SDS011;6307;46.804;11.580;2022-10-23T06:21:26;2.50;;;1.37;;
12484;SDS011;6307;46.804;11.580;2022-10-23T06:23:53;1.83;;;1.50;;
12484;SDS011;6307;46.804;11.580;2022-10-23T06:26:20;1.60;;;1.40;;
12484;SDS011;6307;46.804;11.580;2022-10-23T06:28:46;1.97;;;1.20;;
12484;SDS011;6307;46.804;11.580;2022-10-23T06:31:14;1.30;;;1.20;;
12484;SDS011;6307;46.804;11.580;2022-10-23T06:33:43;2.73;;;1.60;;
12484;SDS011;6307;46.804;11.580;2022-10-23T06:36:09;2.20;;;1.50;;
12484;SDS011;6307;46.804;11.580;2022-10-23T06:38:37;2.10;;;1.50;;
12484;SDS011;6307;46.804;11.580;2022-10-23T06:41:05;2.70;;;1.60;;
12484;SDS011;6307;46.804;11.580;2022-10-23T06:43:38;1.40;;;1.30;;
12484;SDS011;6307;46.804;11.580;2022-10-23T06:46:04;1.53;;;1.20;;
12484;SDS011;6307;46.804;11.580;2022-10-23T06:48:30;1.37;;;1.27;;
12484;SDS011;6307;46.804;11.580;2022-10-23T06:50:57;3.80;;;1.67;;
12484;SDS011;6307;46.804;11.580;2022-10-23T06:53:28;3.27;;;1.43;;
12484;SDS011;6307;46.804;11.580;2022-10-23T06:55:58;3.87;;;1.20;;
12484;SDS011;6307;46.804;11.580;2022-10-23T06:58:25;4.87;;;1.47;;
12484;SDS011;6307;46.804;11.580;2022-10-23T07:00:51;2.70;;;1.30;;
12484;SDS011;6307;46.804;11.580;2022-10-23T07:03:17;1.63;;;1.27;;
12484;SDS011;6307;46.804;11.580;2022-10-23T07:05:43;4.53;;;1.53;;
12484;SDS011;6307;46.804;11.580;2022-10-23T07:08:11;1.60;;;1.17;;
12484;SDS011;6307;46.804;11.580;2022-10-23T07:10:38;3.63;;;1.50;;
12484;SDS011;6307;46.804;11.580;2022-10-23T07:13:08;1.60;;;1.47;;
12484;SDS011;6307;46.804;11.580;2022-10-23T07:15:35;1.93;;;1.53;;
12484;SDS011;6307;46.804;11.580;2022-10-23T07:18:03;1.40;;;1.30;;
12484;SDS011;6307;46.804;11.580;2022-10-23T07:20:31;2.50;;;1.50;;
12484;SDS011;6307;46.804;11.580;2022-10-23T07:22:57;1.30;;;1.20;;
12484;SDS011;6307;46.804;11.580;2022-10-23T07:25:24;3.73;;;1.50;;
12484;SDS011;6307;46.804;11.580;2022-10-23T07:27:51;2.13;;;1.43;;
12484;SDS011;6307;46.804;11.580;2022-10-23T07:30:19;2.90;;;1.40;;
12484;SDS011;6307;46.804;11.580;2022-10-23T07:32:46;2.60;;;1.33;;
12484;SDS011;6307;46.804;11.580;2022-10-23T07:35:12;6.07;;;1.60;;
12484;SDS011;6307;46.804;11.580;2022-10-23T07:37:39;3.83;;;1.83;;
12484;SDS011;6307;46.804;11.580;2022-10-23T07:40:06;2.73;;;1.67;;
12484;SDS011;6307;46.804;11.580;2022-10-23T07:42:33;4.80;;;1.67;;
12484;SDS011;6307;46.804;11.580;2022-10-23T07:44:59;2.93;;;1.40;;
12484;SDS011;6307;46.804;11.580;2022-10-23T07:47:28;2.97;;;1.70;;
12484;SDS011;6307;46.804;11.580;2022-10-23T07:49:56;3.93;;;1.80;;
12484;SDS011;6307;46.804;11.580;2022-10-23T07:52:23;4.37;;;1.83;;
12484;SDS011;6307;46.804;11.580;2022-10-23T07:54:50;3.97;;;1.70;;
12484;SDS011;6307;46.804;11.580;2022-10-23T07:57:16;5.70;;;1.87;;
12484;SDS011;6307;46.804;11.580;2022-10-23T07:59:43;3.17;;;1.70;;
12484;SDS011;6307;46.804;11.580;2022-10-23T08:02:10;3.57;;;1.60;;
12484;SDS011;6307;46.804;11.580;2022-10-23T08:04:38;3.90;;;1.40;;
12484;SDS011;6307;46.804;11.580;2022-10-23T08:07:05;5.23;;;1.70;;
12484;SDS011;6307;46.804;11.580;2022-10-23T08:09:31;3.27;;;1.60;;
12484;SDS011;6307;46.804;11.580;2022-10-23T08:11:58;6.20;;;1.80;;
12484;SDS011;6307;46.804;11.580;2022-10-23T08:14:25;3.57;;;1.30;;
12484;SDS011;6307;46.804;11.580;2022-10-23T08:16:52;3.00;;;1.80;;
12484;SDS011;6307;46.804;11.580;2022-10-23T08:19:18;2.67;;;1.57;;
12484;SDS011;6307;46.804;11.580;2022-10-23T08:21:44;2.97;;;1.30;;
12484;SDS011;6307;46.804;11.580;2022-10-23T08:24:10;7.57;;;1.53;;
12484;SDS011;6307;46.804;11.580;2022-10-23T08:26:38;2.50;;;1.43;;
12484;SDS011;6307;46.804;11.580;2022-10-23T08:29:04;4.27;;;1.27;;
12484;SDS011;6307;46.804;11.580;2022-10-23T08:31:30;3.57;;;1.63;;
12484;SDS011;6307;46.804;11.580;2022-10-23T08:33:56;1.27;;;1.17;;
12484;SDS011;6307;46.804;11.580;2022-10-23T08:36:26;4.13;;;1.40;;
12484;SDS011;6307;46.804;11.580;2022-10-23T08:38:53;2.63;;;1.33;;
12484;SDS011;6307;46.804;11.580;2022-10-23T08:44:08;3.20;;;1.30;;
12484;SDS011;6307;46.804;11.580;2022-10-23T08:47:12;1.23;;;1.13;;
12484;SDS011;6307;46.804;11.580;2022-10-23T08:52:46;2.00;;;1.10;;
12484;SDS011;6307;46.804;11.580;2022-10-23T08:58:02;1.50;;;1.00;;
12484;SDS011;6307;46.804;11.580;2022-10-23T09:00:44;3.53;;;1.10;;
12484;SDS011;6307;46.804;11.580;2022-10-23T09:03:12;2.43;;;1.17;;
12484;SDS011;6307;46.804;11.580;2022-10-23T09:09:01;2.80;;;1.17;;
12484;SDS011;6307;46.804;11.580;2022-10-23T09:17:27;1.07;;;0.90;;
12484;SDS011;6307;46.804;11.580;2022-10-23T09:22:56;1.40;;;1.03;;
12484;SDS011;6307;46.804;11.580;2022-10-23T09:25:41;1.20;;;1.10;;
12484;SDS011;6307;46.804;11.580;2022-10-23T09:28:16;2.13;;;1.13;;
12484;SDS011;6307;46.804;11.580;2022-10-23T09:30:47;1.33;;;1.20;;
12484;SDS011;6307;46.804;11.580;2022-10-23T09:35:53;2.43;;;0.93;;
12484;SDS011;6307;46.804;11.580;2022-10-23T09:38:34;1.90;;;1.27;;
12484;SDS011;6307;46.804;11.580;2022-10-23T09:44:26;1.77;;;1.00;;
12484;SDS011;6307;46.804;11.580;2022-10-23T09:46:52;2.17;;;0.90;;
12484;SDS011;6307;46.804;11.580;2022-10-23T09:49:26;2.37;;;0.97;;
12484;SDS011;6307;46.804;11.580;2022-10-23T09:55:20;0.80;;;0.80;;
12484;SDS011;6307;46.804;11.580;2022-10-23T09:57:50;4.80;;;1.10;;
12484;SDS011;6307;46.804;11.580;2022-10-23T10:00:24;1.47;;;0.83;;
12484;SDS011;6307;46.804;11.580;2022-10-23T10:05:32;0.97;;;0.97;;
12484;SDS011;6307;46.804;11.580;2022-10-23T10:08:06;1.20;;;0.80;;
12484;SDS011;6307;46.804;11.580;2022-10-23T10:10:49;0.87;;;0.53;;
12484;SDS011;6307;46.804;11.580;2022-10-23T10:28:30;1.20;;;0.90;;
12484;SDS011;6307;46.804;11.580;2022-10-23T10:31:13;2.03;;;1.00;;
12484;SDS011;6307;46.804;11.580;2022-10-23T10:34:05;1.83;;;0.90;;
12484;SDS011;6307;46.804;11.580;2022-10-23T10:36:50;1.07;;;0.90;;
12484;SDS011;6307;46.804;11.580;2022-10-23T10:39:53;1.40;;;0.90;;
12484;SDS011;6307;46.804;11.580;2022-10-23T10:45:25;5.40;;;1.10;;
12484;SDS011;6307;46.804;11.580;2022-10-23T10:50:55;1.27;;;0.90;;
12484;SDS011;6307;46.804;11.580;2022-10-23T10:56:38;2.63;;;0.70;;
12484;SDS011;6307;46.804;11.580;2022-10-23T10:59:21;1.20;;;0.60;;
12484;SDS011;6307;46.804;11.580;2022-10-23T11:02:04;1.90;;;0.60;;
12484;SDS011;6307;46.804;11.580;2022-10-23T11:08:04;4.03;;;0.80;;
12484;SDS011;6307;46.804;11.580;2022-10-23T11:10:53;0.67;;;0.67;;
12484;SDS011;6307;46.804;11.580;2022-10-23T11:13:31;0.77;;;0.70;;
12484;SDS011;6307;46.804;11.580;2022-10-23T11:16:11;0.60;;;0.60;;
12484;SDS011;6307;46.804;11.580;2022-10-23T11:22:37;0.77;;;0.60;;
12484;SDS011;6307;46.804;11.580;2022-10-23T11:28:29;0.97;;;0.67;;
12484;SDS011;6307;46.804;11.580;2022-10-23T11:31:32;2.47;;;0.80;;
12484;SDS011;6307;46.804;11.580;2022-10-23T11:37:29;1.50;;;0.70;;
12484;SDS011;6307;46.804;11.580;2022-10-23T11:40:00;1.37;;;0.93;;
12484;SDS011;6307;46.804;11.580;2022-10-23T11:42:47;0.93;;;0.80;;
12484;SDS011;6307;46.804;11.580;2022-10-23T11:45:34;0.60;;;0.60;;
12484;SDS011;6307;46.804;11.580;2022-10-23T11:53:27;1.80;;;0.63;;
12484;SDS011;6307;46.804;11.580;2022-10-23T11:56:21;0.60;;;0.50;;
12484;SDS011;6307;46.804;11.580;2022-10-23T11:58:52;0.50;;;0.50;;
12484;SDS011;6307;46.804;11.580;2022-10-23T12:09:36;0.70;;;0.70;;
12484;SDS011;6307;46.804;11.580;2022-10-23T12:19:53;1.20;;;0.70;;
12484;SDS011;6307;46.804;11.580;2022-10-23T12:40:26;0.90;;;0.80;;
12484;SDS011;6307;46.804;11.580;2022-10-23T12:42:55;1.23;;;0.90;;
12484;SDS011;6307;46.804;11.580;2022-10-23T12:45:31;1.30;;;0.83;;
12484;SDS011;6307;46.804;11.580;2022-10-23T12:48:04;2.27;;;1.00;;
12484;SDS011;6307;46.804;11.580;2022-10-23T12:50:31;2.83;;;1.13;;
12484;SDS011;6307;46.804;11.580;2022-10-23T12:53:04;4.33;;;1.20;;
12484;SDS011;6307;46.804;11.580;2022-10-23T12:55:50;1.03;;;0.90;;
12484;SDS011;6307;46.804;11.580;2022-10-23T12:58:28;1.10;;;1.00;;
12484;SDS011;6307;46.804;11.580;2022-10-23T13:00:59;2.93;;;1.20;;
12484;SDS011;6307;46.804;11.580;2022-10-23T13:03:29;1.40;;;1.10;;
12484;SDS011;6307;46.804;11.580;2022-10-23T13:05:58;1.13;;;0.73;;
12484;SDS011;6307;46.804;11.580;2022-10-23T13:08:40;1.83;;;1.00;;
12484;SDS011;6307;46.804;11.580;2022-10-23T13:11:12;0.80;;;0.80;;
12484;SDS011;6307;46.804;11.580;2022-10-23T13:13:42;1.13;;;0.83;;
12484;SDS011;6307;46.804;11.580;2022-10-23T13:16:12;1.73;;;1.00;;
12484;SDS011;6307;46.804;11.580;2022-10-23T13:18:45;1.70;;;1.00;;
12484;SDS011;6307;46.804;11.580;2022-10-23T13:21:15;1.60;;;0.90;;
12484;SDS011;6307;46.804;11.580;2022-10-23T13:23:48;1.77;;;1.03;;
12484;SDS011;6307;46.804;11.580;2022-10-23T13:26:31;5.17;;;1.10;;
12484;SDS011;6307;46.804;11.580;2022-10-23T13:29:16;3.60;;;1.27;;
12484;SDS011;6307;46.804;11.580;2022-10-23T13:31:47;2.47;;;1.10;;
12484;SDS011;6307;46.804;11.580;2022-10-23T13:34:18;2.10;;;0.70;;
12484;SDS011;6307;46.804;11.580;2022-10-23T13:36:54;1.57;;;0.80;;
12484;SDS011;6307;46.804;11.580;2022-10-23T13:39:28;1.90;;;1.03;;
12484;SDS011;6307;46.804;11.580;2022-10-23T13:42:12;1.43;;;1.20;;
12484;SDS011;6307;46.804;11.580;2022-10-23T13:44:39;1.47;;;0.90;;
12484;SDS011;6307;46.804;11.580;2022-10-23T13:47:10;0.83;;;0.80;;
12484;SDS011;6307;46.804;11.580;2022-10-23T13:49:38;0.97;;;0.83;;
12484;SDS011;6307;46.804;11.580;2022-10-23T13:52:04;1.17;;;1.07;;
12484;SDS011;6307;46.804;11.580;2022-10-23T13:54:37;2.10;;;0.70;;
12484;SDS011;6307;46.804;11.580;2022-10-23T13:57:04;0.93;;;0.70;;
12484;SDS011;6307;46.804;11.580;2022-10-23T13:59:36;0.97;;;0.60;;
12484;SDS011;6307;46.804;11.580;2022-10-23T14:02:02;0.80;;;0.80;;
12484;SDS011;6307;46.804;11.580;2022-10-23T14:04:46;0.77;;;0.77;;
12484;SDS011;6307;46.804;11.580;2022-10-23T14:07:13;0.70;;;0.70;;
12484;SDS011;6307;46.804;11.580;2022-10-23T14:09:39;1.00;;;0.70;;
12484;SDS011;6307;46.804;11.580;2022-10-23T14:12:05;1.73;;;0.97;;
12484;SDS011;6307;46.804;11.580;2022-10-23T14:14:31;0.90;;;0.70;;
12484;SDS011;6307;46.804;11.580;2022-10-23T14:16:58;0.60;;;0.60;;
12484;SDS011;6307;46.804;11.580;2022-10-23T14:19:24;1.13;;;0.80;;
12484;SDS011;6307;46.804;11.580;2022-10-23T14:21:50;1.53;;;0.77;;
12484;SDS011;6307;46.804;11.580;2022-10-23T14:24:16;2.30;;;0.80;;
12484;SDS011;6307;46.804;11.580;2022-10-23T14:26:42;2.27;;;0.97;;
12484;SDS011;6307;46.804;11.580;2022-10-23T14:29:08;1.67;;;0.90;;
12484;SDS011;6307;46.804;11.580;2022-10-23T14:31:34;1.30;;;0.70;;
12484;SDS011;6307;46.804;11.580;2022-10-23T14:34:01;0.90;;;0.80;;
12484;SDS011;6307;46.804;11.580;2022-10-23T14:36:27;1.37;;;0.90;;
12484;SDS011;6307;46.804;11.580;2022-10-23T14:38:55;1.87;;;1.00;;
12484;SDS011;6307;46.804;11.580;2022-10-23T14:41:22;0.83;;;0.80;;
12484;SDS011;6307;46.804;11.580;2022-10-23T14:43:50;1.03;;;0.90;;
12484;SDS011;6307;46.804;11.580;2022-10-23T14:46:19;1.07;;;0.87;;
12484;SDS011;6307;46.804;11.580;2022-10-23T14:48:47;2.80;;;1.20;;
12484;SDS011;6307;46.804;11.580;2022-10-23T14:51:20;1.70;;;1.00;;
12484;SDS011;6307;46.804;11.580;2022-10-23T14:54:01;3.33;;;0.97;;
12484;SDS011;6307;46.804;11.580;2022-10-23T14:56:31;2.37;;;1.00;;
12484;SDS011;6307;46.804;11.580;2022-10-23T14:59:01;1.10;;;1.00;;
12484;SDS011;6307;46.804;11.580;2022-10-23T15:01:39;3.30;;;0.90;;
12484;SDS011;6307;46.804;11.580;2022-10-23T15:04:09;6.57;;;1.40;;
12484;SDS011;6307;46.804;11.580;2022-10-23T15:06:36;2.67;;;0.90;;
12484;SDS011;6307;46.804;11.580;2022-10-23T15:09:02;1.50;;;1.00;;
12484;SDS011;6307;46.804;11.580;2022-10-23T15:11:29;1.73;;;1.17;;
12484;SDS011;6307;46.804;11.580;2022-10-23T15:13:57;3.90;;;1.20;;
12484;SDS011;6307;46.804;11.580;2022-10-23T15:16:24;2.23;;;1.20;;
12484;SDS011;6307;46.804;11.580;2022-10-23T15:18:51;4.10;;;1.30;;
12484;SDS011;6307;46.804;11.580;2022-10-23T15:21:17;3.30;;;1.10;;
12484;SDS011;6307;46.804;11.580;2022-10-23T15:23:44;1.27;;;0.80;;
12484;SDS011;6307;46.804;11.580;2022-10-23T15:26:13;1.13;;;1.00;;
12484;SDS011;6307;46.804;11.580;2022-10-23T15:28:45;1.63;;;1.07;;
12484;SDS011;6307;46.804;11.580;2022-10-23T15:33:54;2.37;;;1.27;;
12484;SDS011;6307;46.804;11.580;2022-10-23T15:36:22;1.10;;;1.00;;
12484;SDS011;6307;46.804;11.580;2022-10-23T15:38:48;2.07;;;1.20;;
12484;SDS011;6307;46.804;11.580;2022-10-23T15:41:16;1.40;;;1.13;;
12484;SDS011;6307;46.804;11.580;2022-10-23T15:43:54;1.77;;;1.20;;
12484;SDS011;6307;46.804;11.580;2022-10-23T15:46:21;2.07;;;1.03;;
12484;SDS011;6307;46.804;11.580;2022-10-23T15:48:47;1.30;;;1.20;;
12484;SDS011;6307;46.804;11.580;2022-10-23T15:51:14;1.33;;;1.13;;
12484;SDS011;6307;46.804;11.580;2022-10-23T15:53:40;1.10;;;1.00;;
12484;SDS011;6307;46.804;11.580;2022-10-23T15:56:06;3.60;;;1.20;;
12484;SDS011;6307;46.804;11.580;2022-10-23T15:58:32;2.17;;;1.10;;
12484;SDS011;6307;46.804;11.580;2022-10-23T16:01:00;1.80;;;1.07;;
12484;SDS011;6307;46.804;11.580;2022-10-23T16:03:30;1.43;;;1.10;;
12484;SDS011;6307;46.804;11.580;2022-10-23T16:05:58;3.23;;;1.17;;
12484;SDS011;6307;46.804;11.580;2022-10-23T16:08:29;4.67;;;1.30;;
12484;SDS011;6307;46.804;11.580;2022-10-23T16:10:55;1.20;;;1.03;;
12484;SDS011;6307;46.804;11.580;2022-10-23T16:13:23;2.70;;;1.20;;
12484;SDS011;6307;46.804;11.580;2022-10-23T16:15:50;3.10;;;1.00;;
12484;SDS011;6307;46.804;11.580;2022-10-23T16:18:18;7.20;;;1.63;;
12484;SDS011;6307;46.804;11.580;2022-10-23T16:20:45;1.77;;;1.23;;
12484;SDS011;6307;46.804;11.580;2022-10-23T16:23:11;6.40;;;1.70;;
12484;SDS011;6307;46.804;11.580;2022-10-23T16:25:37;3.87;;;1.40;;
12484;SDS011;6307;46.804;11.580;2022-10-23T16:28:04;2.60;;;1.07;;
12484;SDS011;6307;46.804;11.580;2022-10-23T16:30:30;2.63;;;1.20;;
12484;SDS011;6307;46.804;11.580;2022-10-23T16:32:56;1.83;;;1.10;;
12484;SDS011;6307;46.804;11.580;2022-10-23T16:35:23;1.77;;;1.17;;
12484;SDS011;6307;46.804;11.580;2022-10-23T16:37:49;1.90;;;1.17;;
12484;SDS011;6307;46.804;11.580;2022-10-23T16:40:15;2.90;;;1.37;;
12484;SDS011;6307;46.804;11.580;2022-10-23T16:42:41;3.63;;;1.30;;
12484;SDS011;6307;46.804;11.580;2022-10-23T16:45:07;1.63;;;1.17;;
12484;SDS011;6307;46.804;11.580;2022-10-23T16:47:34;3.23;;;1.37;;
12484;SDS011;6307;46.804;11.580;2022-10-23T16:50:00;2.00;;;1.40;;
12484;SDS011;6307;46.804;11.580;2022-10-23T16:52:27;4.00;;;1.50;;
12484;SDS011;6307;46.804;11.580;2022-10-23T16:54:53;1.23;;;1.13;;
12484;SDS011;6307;46.804;11.580;2022-10-23T16:57:19;1.47;;;1.33;;
12484;SDS011;6307;46.804;11.580;2022-10-23T16:59:45;4.67;;;1.40;;
12484;SDS011;6307;46.804;11.580;2022-10-23T17:02:11;2.47;;;1.20;;
12484;SDS011;6307;46.804;11.580;2022-10-23T17:04:38;1.60;;;1.10;;
12484;SDS011;6307;46.804;11.580;2022-10-23T17:07:05;4.17;;;1.60;;
12484;SDS011;6307;46.804;11.580;2022-10-23T17:09:31;5.27;;;1.50;;
12484;SDS011;6307;46.804;11.580;2022-10-23T17:11:59;2.20;;;1.37;;
12484;SDS011;6307;46.804;11.580;2022-10-23T17:14:25;1.67;;;1.10;;
12484;SDS011;6307;46.804;11.580;2022-10-23T17:16:55;5.73;;;1.47;;
12484;SDS011;6307;46.804;11.580;2022-10-23T17:19:31;5.00;;;1.60;;
12484;SDS011;6307;46.804;11.580;2022-10-23T17:21:58;3.13;;;1.20;;
12484;SDS011;6307;46.804;11.580;2022-10-23T17:24:25;3.87;;;1.30;;
12484;SDS011;6307;46.804;11.580;2022-10-23T17:26:51;2.03;;;1.53;;
12484;SDS011;6307;46.804;11.580;2022-10-23T17:29:18;1.97;;;1.20;;
12484;SDS011;6307;46.804;11.580;2022-10-23T17:31:45;3.17;;;1.80;;
12484;SDS011;6307;46.804;11.580;2022-10-23T17:34:16;2.33;;;1.63;;
12484;SDS011;6307;46.804;11.580;2022-10-23T17:36:46;3.23;;;1.80;;
12484;SDS011;6307;46.804;11.580;2022-10-23T17:39:18;4.07;;;2.17;;